ADDS TAF Data INFO

IDs: Format: Raw Decoded Include METARs

Data at: 0213 UTC 31 Aug 2014

Region: TOP
KATL 310137Z 3102/0106 VRB03KT P6SM VCSH SCT040 BKN100
  TEMPO 3102/3104 VRB15G25KT 3SM TSRA BKN040CB
  FM310500 VRB03KT P6SM FEW040 BKN100
  FM311400 23005KT P6SM SCT025 SCT250
  FM311800 24007KT P6SM SCT050 SCT150
  PROB30 3120/3124 6SM TSRA BKN040CB
  FM010000 25004KT P6SM FEW050 SCT250


KBOS 302331Z 3100/0106 19010KT P6SM SCT040 SCT250
  FM311200 21009KT 3SM BR BKN035
  FM311400 22010KT P6SM BKN025
  FM311700 22012KT P6SM BKN120
  FM010000 21011KT 3SM BR OVC030
  FM010300 22010KT 2SM BR OVC010


KBWI 302347Z 3100/0106 14006KT P6SM BKN050
  FM311000 19006KT 5SM BR BKN250
  FM311300 20007KT P6SM BKN130
  FM311800 20009KT P6SM -SHRA VCTS BKN050CB
  FM312200 21009KT P6SM BKN050
  FM010100 23005KT P6SM OVC050


KCLE 302339Z 3100/0106 20012G18KT P6SM VCSH BKN060 BKN120
  FM310500 21011KT P6SM -SHRA VCTS BKN035CB OVC100
  FM310800 22009KT 5SM -SHRA OVC025
  FM311400 23009KT 4SM BR VCSH OVC015
  FM311800 23009KT P6SM BKN025


KCLT 302338Z 3100/3124 15005KT P6SM SCT250
  FM311000 18003KT 5SM BR SCT030 BKN170
  FM311300 18004KT P6SM FEW030 BKN170
  FM311900 20006KT P6SM SCT250
  PROB30 3120/3124 4SM TSRA BKN040CB


KCVG 302340Z 3100/0106 20006KT 6SM -SHRA BR SCT050 OVC100
  FM310600 18006KT 3SM -SHRA BR OVC040
  FM310900 19006KT 2SM -SHRA BR OVC012
  FM311300 19006KT 5SM BR VCSH OVC007
  FM311700 19008KT P6SM VCTS BKN025CB
  FM312100 21007KT P6SM BKN035
  FM010300 21004KT 5SM BR SCT010


KDCA 302347Z 3100/3124 13009KT P6SM OVC050
  FM311000 20006KT 5SM BR BKN130
  FM311200 20007KT P6SM BKN130
  FM311800 20010KT P6SM -SHRA VCTS BKN050CB
  FM312200 21009KT P6SM BKN050


KDEN 310202Z 3102/0106 07006KT P6SM SCT090 BKN140
  TEMPO 3102/3103 VRB20G32KT -SHRA BKN090
  FM310300 30010KT P6SM FEW090 BKN140
  FM310600 20010KT P6SM SCT140 SCT200
  FM311400 31006KT P6SM SCT140 BKN200
  FM311800 05009KT P6SM SCT080 BKN150
  PROB30 3120/3124 VRB30G32KT -TSRA BKN080CB
  FM010000 33010KT P6SM VCTS SCT080CB BKN150
  FM010200 30007KT P6SM SCT150


KDFW 302330Z 3100/0106 14006KT P6SM SCT050
  FM311300 17010KT P6SM BKN025
  FM311600 17012KT P6SM SCT040


KDTW 302320Z 3100/0106 19013G19KT P6SM SCT050 BKN150
  FM310100 20013KT 5SM -SHRA BKN040 OVC080
  TEMPO 3101/3103 4SM TSRA OVC025CB
  FM310600 21012KT P6SM BKN030
  FM310900 23007KT 4SM BR BKN015 OVC025
  FM311400 23010KT P6SM BKN025
  FM311900 20006KT P6SM BKN040


KEWR 302340Z 3100/0106 16008KT P6SM SCT025 BKN040
  FM310100 20006KT P6SM SCT015 BKN035
  FM311000 21008KT P6SM BKN015
  FM311500 21010KT P6SM SCT020 BKN040
  FM311800 21012G18KT P6SM SCT040 SCT080
  FM010000 23008KT 5SM SHRA BR SCT040 BKN080
  PROB30 0100/0106 TSRA BKN040CB


KFLL 310026Z 3100/3124 10011KT P6SM VCSH SCT024 SCT250
  FM311400 11014KT P6SM SCT030 SCT250


KIAD 302347Z 3100/0106 17004KT P6SM BKN030
  FM310900 19006KT 5SM BR BKN130
  FM311300 20007KT P6SM BKN090
  FM311800 20010KT P6SM -SHRA VCTS BKN050CB
  FM312200 22007KT P6SM BKN050
  FM010100 VRB03KT P6SM OVC050


KIAH 302333Z 3100/0106 14013KT P6SM FEW035 SCT120 BKN250
  FM310400 17003KT P6SM FEW025 SCT040
  FM311100 16006KT P6SM VCSH SCT030 OVC070
  TEMPO 3114/3118 SHRA BKN028 OVC050
  FM312100 14011KT P6SM VCSH SCT050 BKN150
  FM010100 16006KT P6SM SCT100 BKN250


KJFK 302340Z 3100/0106 17013KT P6SM SCT025 BKN040
  FM310200 20009KT P6SM SCT015 BKN035
  FM311000 20008KT P6SM BKN015
  FM311500 19012KT P6SM SCT020 BKN040
  FM311800 19016KT P6SM SCT040 SCT080
  FM010000 20012KT 5SM SHRA BR SCT040 BKN080
  PROB30 0100/0106 TSRA BKN040CB


KLAS 302320Z 3100/3124 22014G24KT P6SM SCT160 BKN250
  FM310400 20012KT P6SM FEW250
  FM311000 20008KT P6SM FEW250
  FM311700 06007KT P6SM FEW250
  FM312200 15007KT P6SM FEW250


KLAX 302337Z 3100/0106 27014KT P6SM SKC
  FM310100 26009KT P6SM SKC
  FM310400 VRB03KT P6SM SKC
  FM311100 VRB03KT 4SM BR OVC008
  FM311600 27006KT 6SM HZ SCT010
  FM312000 27011KT P6SM SKC
  FM010400 26007KT 4SM BR BKN007


KLGA 302340Z 3100/3124 17012KT P6SM SCT025 BKN040
  FM310200 20008KT P6SM SCT015 BKN035
  FM311000 21008KT P6SM BKN015
  FM311500 20011KT P6SM SCT020 BKN040
  FM311900 19014G20KT P6SM SCT040 SCT080


KMCO 302322Z 3100/3124 15004KT P6SM FEW040 SCT060 SCT250
  FM310800 00000KT P6SM SCT250
  FM311400 12006KT P6SM FEW030 FEW150 SCT250


KMDW 302322Z 3100/3124 25011G16KT P6SM FEW040 SCT300
  FM310100 23007KT P6SM SCT300
  FM310500 VRB03KT 6SM BCFG SCT300
  FM311600 20006KT P6SM SCT030


KMEM 302331Z 3100/3124 16005KT 6SM -RA BR VCTS SCT015 BKN025CB
  FM310600 18010KT 4SM -RA BR VCTS BKN008 OVC015CB
  FM311500 22010KT 6SM -SHRA BKN015 BKN035
  FM311800 22012KT P6SM VCTS SCT025 BKN035CB


KMIA 310026Z 3100/3124 10011KT P6SM SCT035 SCT130 SCT300
  FM310600 09004KT P6SM FEW025 SCT250
  FM311400 11014KT P6SM SCT030 SCT250


KMSP 310020Z 3100/0106 08005KT P6SM BKN035 BKN070
  TEMPO 3100/3102 5SM -SHRA BKN030 BKN070
  FM310300 12004KT P6SM SCT025 BKN050
  FM311000 13005KT P6SM SCT025 BKN200
  FM311700 16015G22KT P6SM SCT040 BKN090
  FM312300 17014G22KT P6SM VCTS SCT040CB BKN070
  TEMPO 3123/0103 4SM TSRA BKN030CB OVC070


KORD 302322Z 3100/0106 25011G16KT P6SM FEW040 SCT300
  FM310100 23007KT P6SM SCT300
  FM310500 VRB03KT 6SM BCFG SCT300
  FM311600 20006KT P6SM SCT030


KPDX 302340Z 3100/3124 31007KT P6SM VCSH SCT030 BKN050 BKN070
  FM310400 30004KT P6SM BKN050
  FM311000 26003KT P6SM BKN015 OVC025
  FM311400 24005KT P6SM SCT025 BKN050
  FM312000 30006KT P6SM SCT050 BKN070


KPHL 302341Z 3100/0106 15006KT P6SM BKN040 BKN060
  FM310700 19005KT 6SM BR FEW009 OVC015
  FM311600 21010KT P6SM VCSH BKN035 BKN100
  FM312300 22010G18KT P6SM SHRA SCT025 BKN035
  FM010200 22007KT P6SM SCT035 BKN050


KPHX 302339Z 3100/3124 26008KT P6SM FEW250
  FM311000 11005KT P6SM FEW250
  FM311500 17007KT P6SM FEW250
  FM312000 23010KT P6SM FEW250


KPIT 302322Z 3100/0106 19008KT P6SM BKN150
  FM310800 21005KT 5SM -SHRA OVC030
  FM311200 23008KT 3SM -SHRA OVC015
  FM312000 22008KT 5SM -SHRA VCTS OVC020CB
  FM312300 20005KT 6SM -SHRA BR OVC020


KSAN 302320Z 3100/0106 29008KT P6SM SKC
  FM310200 VRB05KT P6SM FEW014
  FM310400 19005KT P6SM OVC015
  FM311700 21007KT P6SM FEW019
  FM010300 19006KT P6SM BKN016


KSEA 302320Z 3100/0106 VRB04KT P6SM VCSH SCT012 OVC025
  TEMPO 3100/3102 2SM -RA BR BKN012 OVC020
  FM310400 VRB04KT P6SM VCSH BKN030 BKN060
  FM311000 18005KT P6SM BKN020 OVC040
  FM311700 18008KT P6SM SCT025 BKN050 BKN120


KSFO 302320Z 3100/0106 29018G27KT P6SM FEW010 SCT200
  FM310400 29012KT P6SM FEW010 SCT200
  FM312100 29017G25KT P6SM FEW010 SCT200
  FM010400 29011KT P6SM FEW200


KSLC 302332Z 3100/0106 14010KT P6SM SCT090 BKN150
  FM310700 33012G19KT P6SM SCT070 BKN110
  FM311000 33010KT P6SM SCT070 BKN110
  FM311800 33009KT P6SM FEW070 SCT110


KSTL 302338Z 3100/0106 19008KT P6SM VCTS BKN050CB OVC100
  FM310100 19006KT P6SM SCT050 BKN120
  FM310600 20005KT P6SM SCT120 BKN250
  FM311000 VRB04KT 5SM BR SCT015
  FM311400 22008KT P6SM SCT030
  FM010000 17008KT P6SM SKC


KTPA 302338Z 3100/3124 VRB06KT P6SM VCTS SCT040CB BKN100 BKN250 WS005/11010KT
  TEMPO 3100/3101 VRB15G25KT 4SM TSRA SCT005 BKN025CB
  FM310200 VRB03KT P6SM FEW025 BKN250
  FM311400 15006KT P6SM SCT025 BKN250
  FM311800 VRB06KT P6SM VCTS SCT025CB BKN050



Page loaded:  02:13 UTC  |   07:13 PM Pacific  |   08:13 PM Mountain  |   09:13 PM Central  |   10:13 PM Eastern

 

ADVISORIES

FORECASTS

FORECASTS

OBSERVATIONS

USER TOOLS

ABOUT US